sensor_id;sensor_type;location;lat;lon;timestamp;temperature;humidity
9375;DHT22;4727;51.202;6.344;2022-08-07T00:00:07;15.90;99.90
9375;DHT22;4727;51.202;6.344;2022-08-07T00:02:32;15.90;99.90
9375;DHT22;4727;51.202;6.344;2022-08-07T00:04:58;15.90;1.00
9375;DHT22;4727;51.202;6.344;2022-08-07T00:07:23;15.80;99.90
9375;DHT22;4727;51.202;6.344;2022-08-07T00:09:49;15.80;1.00
9375;DHT22;4727;51.202;6.344;2022-08-07T00:12:15;15.70;99.90
9375;DHT22;4727;51.202;6.344;2022-08-07T00:14:40;15.60;1.00
9375;DHT22;4727;51.202;6.344;2022-08-07T00:17:06;15.60;1.00
9375;DHT22;4727;51.202;6.344;2022-08-07T00:19:32;15.60;1.00
9375;DHT22;4727;51.202;6.344;2022-08-07T00:21:58;15.50;29.10
9375;DHT22;4727;51.202;6.344;2022-08-07T00:24:23;15.40;1.00
9375;DHT22;4727;51.202;6.344;2022-08-07T00:26:49;15.40;99.90
9375;DHT22;4727;51.202;6.344;2022-08-07T00:29:17;15.30;99.90
9375;DHT22;4727;51.202;6.344;2022-08-07T00:31:43;15.30;99.90
9375;DHT22;4727;51.202;6.344;2022-08-07T00:34:09;15.20;99.90
9375;DHT22;4727;51.202;6.344;2022-08-07T00:36:35;15.20;1.00
9375;DHT22;4727;51.202;6.344;2022-08-07T00:39:01;15.20;1.00
9375;DHT22;4727;51.202;6.344;2022-08-07T00:41:30;15.10;1.00
9375;DHT22;4727;51.202;6.344;2022-08-07T00:43:56;15.10;1.00
9375;DHT22;4727;51.202;6.344;2022-08-07T00:46:22;15.00;1.00
9375;DHT22;4727;51.202;6.344;2022-08-07T00:48:47;15.00;99.90
9375;DHT22;4727;51.202;6.344;2022-08-07T00:51:13;15.00;1.00
9375;DHT22;4727;51.202;6.344;2022-08-07T00:53:39;15.00;1.00
9375;DHT22;4727;51.202;6.344;2022-08-07T00:56:06;15.00;1.00
9375;DHT22;4727;51.202;6.344;2022-08-07T00:58:32;14.90;1.00
9375;DHT22;4727;51.202;6.344;2022-08-07T01:00:58;14.90;99.90
9375;DHT22;4727;51.202;6.344;2022-08-07T01:03:24;15.00;1.00
9375;DHT22;4727;51.202;6.344;2022-08-07T01:05:52;15.00;1.00
9375;DHT22;4727;51.202;6.344;2022-08-07T01:08:20;15.00;1.00
9375;DHT22;4727;51.202;6.344;2022-08-07T01:10:45;15.00;1.00
9375;DHT22;4727;51.202;6.344;2022-08-07T01:13:11;15.00;1.00
9375;DHT22;4727;51.202;6.344;2022-08-07T01:15:37;15.10;1.00
9375;DHT22;4727;51.202;6.344;2022-08-07T01:18:03;15.20;1.00
9375;DHT22;4727;51.202;6.344;2022-08-07T01:20:35;15.20;1.00
9375;DHT22;4727;51.202;6.344;2022-08-07T01:23:03;15.20;99.90
9375;DHT22;4727;51.202;6.344;2022-08-07T01:25:29;15.20;1.00
9375;DHT22;4727;51.202;6.344;2022-08-07T01:27:55;15.20;1.00
9375;DHT22;4727;51.202;6.344;2022-08-07T01:30:22;15.10;1.00
9375;DHT22;4727;51.202;6.344;2022-08-07T01:32:49;15.00;1.00
9375;DHT22;4727;51.202;6.344;2022-08-07T01:35:14;15.00;65.10
9375;DHT22;4727;51.202;6.344;2022-08-07T01:37:40;14.90;8.40
9375;DHT22;4727;51.202;6.344;2022-08-07T01:40:07;14.80;60.50
9375;DHT22;4727;51.202;6.344;2022-08-07T01:42:34;14.80;99.90
9375;DHT22;4727;51.202;6.344;2022-08-07T01:45:00;14.70;99.90
9375;DHT22;4727;51.202;6.344;2022-08-07T01:47:26;14.60;1.00
9375;DHT22;4727;51.202;6.344;2022-08-07T01:49:52;14.50;1.00
9375;DHT22;4727;51.202;6.344;2022-08-07T01:52:18;14.40;1.00
9375;DHT22;4727;51.202;6.344;2022-08-07T01:54:45;14.50;1.00
9375;DHT22;4727;51.202;6.344;2022-08-07T01:57:24;14.50;1.00
9375;DHT22;4727;51.202;6.344;2022-08-07T02:00:07;14.40;1.00
9375;DHT22;4727;51.202;6.344;2022-08-07T02:02:51;14.40;1.00
9375;DHT22;4727;51.202;6.344;2022-08-07T02:05:24;14.30;98.30
9375;DHT22;4727;51.202;6.344;2022-08-07T02:07:52;14.30;1.00
9375;DHT22;4727;51.202;6.344;2022-08-07T02:10:22;14.30;99.90
9375;DHT22;4727;51.202;6.344;2022-08-07T02:12:49;14.30;99.90
9375;DHT22;4727;51.202;6.344;2022-08-07T02:15:19;14.30;99.90
9375;DHT22;4727;51.202;6.344;2022-08-07T02:17:47;14.20;99.90
9375;DHT22;4727;51.202;6.344;2022-08-07T02:20:15;14.20;99.90
9375;DHT22;4727;51.202;6.344;2022-08-07T02:22:41;14.10;99.90
9375;DHT22;4727;51.202;6.344;2022-08-07T02:25:08;14.10;1.00
9375;DHT22;4727;51.202;6.344;2022-08-07T02:27:35;14.10;1.00
9375;DHT22;4727;51.202;6.344;2022-08-07T02:30:03;14.10;1.00
9375;DHT22;4727;51.202;6.344;2022-08-07T02:32:29;14.10;99.90
9375;DHT22;4727;51.202;6.344;2022-08-07T02:34:57;14.10;1.00
9375;DHT22;4727;51.202;6.344;2022-08-07T02:37:25;14.00;1.00
9375;DHT22;4727;51.202;6.344;2022-08-07T02:39:53;14.00;1.00
9375;DHT22;4727;51.202;6.344;2022-08-07T02:42:19;14.00;1.00
9375;DHT22;4727;51.202;6.344;2022-08-07T02:44:48;14.10;1.00
9375;DHT22;4727;51.202;6.344;2022-08-07T02:47:15;14.10;1.00
9375;DHT22;4727;51.202;6.344;2022-08-07T02:49:42;14.10;1.00
9375;DHT22;4727;51.202;6.344;2022-08-07T02:52:10;14.00;1.00
9375;DHT22;4727;51.202;6.344;2022-08-07T02:54:40;14.00;1.00
9375;DHT22;4727;51.202;6.344;2022-08-07T02:57:07;13.90;99.90
9375;DHT22;4727;51.202;6.344;2022-08-07T02:59:36;13.90;99.90
9375;DHT22;4727;51.202;6.344;2022-08-07T03:02:02;13.90;99.90
9375;DHT22;4727;51.202;6.344;2022-08-07T03:04:28;13.90;99.90
9375;DHT22;4727;51.202;6.344;2022-08-07T03:06:55;13.90;99.90
9375;DHT22;4727;51.202;6.344;2022-08-07T03:09:21;13.80;99.90
9375;DHT22;4727;51.202;6.344;2022-08-07T03:11:47;13.80;99.90
9375;DHT22;4727;51.202;6.344;2022-08-07T03:14:14;13.80;1.00
9375;DHT22;4727;51.202;6.344;2022-08-07T03:16:41;13.80;53.20
9375;DHT22;4727;51.202;6.344;2022-08-07T03:19:07;13.70;1.00
9375;DHT22;4727;51.202;6.344;2022-08-07T03:21:33;13.70;67.80
9375;DHT22;4727;51.202;6.344;2022-08-07T03:23:59;13.70;99.90
9375;DHT22;4727;51.202;6.344;2022-08-07T03:26:27;13.70;99.90
9375;DHT22;4727;51.202;6.344;2022-08-07T03:28:55;13.70;99.90
9375;DHT22;4727;51.202;6.344;2022-08-07T03:31:22;13.60;99.90
9375;DHT22;4727;51.202;6.344;2022-08-07T03:33:58;13.60;99.90
9375;DHT22;4727;51.202;6.344;2022-08-07T03:36:26;13.60;99.90
9375;DHT22;4727;51.202;6.344;2022-08-07T03:38:56;13.60;99.90
9375;DHT22;4727;51.202;6.344;2022-08-07T03:41:23;13.60;99.90
9375;DHT22;4727;51.202;6.344;2022-08-07T03:43:49;13.60;99.90
9375;DHT22;4727;51.202;6.344;2022-08-07T03:46:15;13.60;99.90
9375;DHT22;4727;51.202;6.344;2022-08-07T03:48:41;13.60;1.00
9375;DHT22;4727;51.202;6.344;2022-08-07T03:51:07;13.70;99.90
9375;DHT22;4727;51.202;6.344;2022-08-07T03:53:33;13.60;99.90
9375;DHT22;4727;51.202;6.344;2022-08-07T03:56:00;13.60;99.90
9375;DHT22;4727;51.202;6.344;2022-08-07T03:58:27;13.60;99.90
9375;DHT22;4727;51.202;6.344;2022-08-07T04:00:55;13.60;1.00
9375;DHT22;4727;51.202;6.344;2022-08-07T04:03:21;13.60;1.00
9375;DHT22;4727;51.202;6.344;2022-08-07T04:05:47;13.60;1.00
9375;DHT22;4727;51.202;6.344;2022-08-07T04:08:14;13.50;1.00
9375;DHT22;4727;51.202;6.344;2022-08-07T04:10:40;13.60;1.00
9375;DHT22;4727;51.202;6.344;2022-08-07T04:13:09;13.50;19.70
9375;DHT22;4727;51.202;6.344;2022-08-07T04:15:35;13.50;1.00
9375;DHT22;4727;51.202;6.344;2022-08-07T04:18:01;13.50;1.00
9375;DHT22;4727;51.202;6.344;2022-08-07T04:20:27;13.40;99.90
9375;DHT22;4727;51.202;6.344;2022-08-07T04:22:53;13.40;99.90
9375;DHT22;4727;51.202;6.344;2022-08-07T04:25:21;13.40;99.90
9375;DHT22;4727;51.202;6.344;2022-08-07T04:27:47;13.40;1.00
9375;DHT22;4727;51.202;6.344;2022-08-07T04:30:13;13.40;99.90
9375;DHT22;4727;51.202;6.344;2022-08-07T04:32:39;13.40;99.90
9375;DHT22;4727;51.202;6.344;2022-08-07T04:35:06;13.40;99.90
9375;DHT22;4727;51.202;6.344;2022-08-07T04:37:32;13.30;99.90
9375;DHT22;4727;51.202;6.344;2022-08-07T04:39:59;13.30;99.90
9375;DHT22;4727;51.202;6.344;2022-08-07T04:42:24;13.30;99.90
9375;DHT22;4727;51.202;6.344;2022-08-07T04:44:57;13.30;1.00
9375;DHT22;4727;51.202;6.344;2022-08-07T04:47:40;13.30;99.90
9375;DHT22;4727;51.202;6.344;2022-08-07T04:50:13;13.30;1.00
9375;DHT22;4727;51.202;6.344;2022-08-07T04:52:55;13.30;1.00
9375;DHT22;4727;51.202;6.344;2022-08-07T04:55:33;13.30;1.00
9375;DHT22;4727;51.202;6.344;2022-08-07T05:00:54;13.30;1.00
9375;DHT22;4727;51.202;6.344;2022-08-07T05:03:44;13.20;1.00
9375;DHT22;4727;51.202;6.344;2022-08-07T05:06:16;13.20;99.90
9375;DHT22;4727;51.202;6.344;2022-08-07T05:08:57;13.20;1.00
9375;DHT22;4727;51.202;6.344;2022-08-07T05:11:33;13.20;1.00
9375;DHT22;4727;51.202;6.344;2022-08-07T05:14:10;13.30;99.90
9375;DHT22;4727;51.202;6.344;2022-08-07T05:16:37;13.30;99.90
9375;DHT22;4727;51.202;6.344;2022-08-07T05:19:09;13.40;99.90
9375;DHT22;4727;51.202;6.344;2022-08-07T05:21:36;13.40;1.00
9375;DHT22;4727;51.202;6.344;2022-08-07T05:24:07;13.40;99.90
9375;DHT22;4727;51.202;6.344;2022-08-07T05:26:34;13.50;1.00
9375;DHT22;4727;51.202;6.344;2022-08-07T05:29:02;13.60;99.90
9375;DHT22;4727;51.202;6.344;2022-08-07T05:31:32;13.70;99.90
9375;DHT22;4727;51.202;6.344;2022-08-07T05:34:00;13.80;99.90
9375;DHT22;4727;51.202;6.344;2022-08-07T05:36:27;13.90;99.90
9375;DHT22;4727;51.202;6.344;2022-08-07T05:38:54;14.00;99.90
9375;DHT22;4727;51.202;6.344;2022-08-07T05:41:21;14.10;99.90
9375;DHT22;4727;51.202;6.344;2022-08-07T05:43:49;14.20;99.90
9375;DHT22;4727;51.202;6.344;2022-08-07T05:46:16;14.20;99.90
9375;DHT22;4727;51.202;6.344;2022-08-07T05:48:43;14.30;99.90
9375;DHT22;4727;51.202;6.344;2022-08-07T05:51:09;14.40;99.90
9375;DHT22;4727;51.202;6.344;2022-08-07T05:53:35;14.50;1.00
9375;DHT22;4727;51.202;6.344;2022-08-07T05:56:01;14.60;1.00
9375;DHT22;4727;51.202;6.344;2022-08-07T05:58:28;14.70;1.00
9375;DHT22;4727;51.202;6.344;2022-08-07T06:00:54;14.80;99.90
9375;DHT22;4727;51.202;6.344;2022-08-07T06:03:22;14.90;99.90
9375;DHT22;4727;51.202;6.344;2022-08-07T06:05:48;14.90;1.00
9375;DHT22;4727;51.202;6.344;2022-08-07T06:08:18;15.10;1.00
9375;DHT22;4727;51.202;6.344;2022-08-07T06:10:44;15.10;99.90
9375;DHT22;4727;51.202;6.344;2022-08-07T06:13:10;15.20;1.00
9375;DHT22;4727;51.202;6.344;2022-08-07T06:15:36;15.20;99.90
9375;DHT22;4727;51.202;6.344;2022-08-07T06:18:04;15.30;1.00
9375;DHT22;4727;51.202;6.344;2022-08-07T06:20:30;15.40;99.90
9375;DHT22;4727;51.202;6.344;2022-08-07T06:22:59;15.50;99.90
9375;DHT22;4727;51.202;6.344;2022-08-07T06:25:25;15.60;1.00
9375;DHT22;4727;51.202;6.344;2022-08-07T06:27:51;15.70;1.00
9375;DHT22;4727;51.202;6.344;2022-08-07T06:30:17;15.70;1.00
9375;DHT22;4727;51.202;6.344;2022-08-07T06:32:42;15.90;99.90
9375;DHT22;4727;51.202;6.344;2022-08-07T06:35:08;16.00;99.90
9375;DHT22;4727;51.202;6.344;2022-08-07T06:37:34;16.00;1.00
9375;DHT22;4727;51.202;6.344;2022-08-07T06:39:59;16.10;1.00
9375;DHT22;4727;51.202;6.344;2022-08-07T06:42:32;16.20;1.00
9375;DHT22;4727;51.202;6.344;2022-08-07T06:45:03;16.20;1.00
9375;DHT22;4727;51.202;6.344;2022-08-07T06:47:30;16.30;16.00
9375;DHT22;4727;51.202;6.344;2022-08-07T06:49:56;16.40;99.90
9375;DHT22;4727;51.202;6.344;2022-08-07T06:52:23;16.50;1.00
9375;DHT22;4727;51.202;6.344;2022-08-07T06:54:49;16.50;99.90
9375;DHT22;4727;51.202;6.344;2022-08-07T06:57:17;16.60;99.90
9375;DHT22;4727;51.202;6.344;2022-08-07T06:59:46;16.70;1.00
9375;DHT22;4727;51.202;6.344;2022-08-07T07:02:18;16.70;99.90
9375;DHT22;4727;51.202;6.344;2022-08-07T07:04:45;16.80;1.00
9375;DHT22;4727;51.202;6.344;2022-08-07T07:07:11;16.90;1.00
9375;DHT22;4727;51.202;6.344;2022-08-07T07:09:36;17.00;99.90
9375;DHT22;4727;51.202;6.344;2022-08-07T07:12:30;17.00;99.90
9375;DHT22;4727;51.202;6.344;2022-08-07T07:15:04;17.10;63.80
9375;DHT22;4727;51.202;6.344;2022-08-07T07:20:26;17.20;1.00
9375;DHT22;4727;51.202;6.344;2022-08-07T07:22:54;17.30;1.00
9375;DHT22;4727;51.202;6.344;2022-08-07T07:25:20;17.40;99.90
9375;DHT22;4727;51.202;6.344;2022-08-07T07:27:54;17.40;99.90
9375;DHT22;4727;51.202;6.344;2022-08-07T07:30:24;17.50;1.00
9375;DHT22;4727;51.202;6.344;2022-08-07T07:32:54;17.60;59.20
9375;DHT22;4727;51.202;6.344;2022-08-07T07:35:21;17.70;44.60
9375;DHT22;4727;51.202;6.344;2022-08-07T07:37:48;17.80;1.00
9375;DHT22;4727;51.202;6.344;2022-08-07T07:40:17;17.90;99.90
9375;DHT22;4727;51.202;6.344;2022-08-07T07:42:46;18.00;99.90
9375;DHT22;4727;51.202;6.344;2022-08-07T07:45:13;18.00;1.00
9375;DHT22;4727;51.202;6.344;2022-08-07T07:47:42;18.10;1.00
9375;DHT22;4727;51.202;6.344;2022-08-07T07:50:10;18.20;1.00
9375;DHT22;4727;51.202;6.344;2022-08-07T07:52:36;18.30;1.00
9375;DHT22;4727;51.202;6.344;2022-08-07T07:55:03;18.40;99.90
9375;DHT22;4727;51.202;6.344;2022-08-07T07:57:30;18.40;1.00
9375;DHT22;4727;51.202;6.344;2022-08-07T07:59:59;18.40;99.90
9375;DHT22;4727;51.202;6.344;2022-08-07T08:02:27;18.60;1.00
9375;DHT22;4727;51.202;6.344;2022-08-07T08:04:55;18.70;1.00
9375;DHT22;4727;51.202;6.344;2022-08-07T08:07:22;18.80;99.90
9375;DHT22;4727;51.202;6.344;2022-08-07T08:09:51;18.90;1.00
9375;DHT22;4727;51.202;6.344;2022-08-07T08:12:17;19.00;1.00
9375;DHT22;4727;51.202;6.344;2022-08-07T08:14:43;19.00;1.00
9375;DHT22;4727;51.202;6.344;2022-08-07T08:17:10;19.10;99.90
9375;DHT22;4727;51.202;6.344;2022-08-07T08:19:38;19.10;99.90
9375;DHT22;4727;51.202;6.344;2022-08-07T08:22:06;19.20;69.20
9375;DHT22;4727;51.202;6.344;2022-08-07T08:24:54;19.30;99.90
9375;DHT22;4727;51.202;6.344;2022-08-07T08:27:41;19.40;99.90
9375;DHT22;4727;51.202;6.344;2022-08-07T08:30:12;19.50;1.00
9375;DHT22;4727;51.202;6.344;2022-08-07T08:32:42;19.70;1.00
9375;DHT22;4727;51.202;6.344;2022-08-07T08:35:11;19.80;1.00
9375;DHT22;4727;51.202;6.344;2022-08-07T08:37:38;19.90;99.90
9375;DHT22;4727;51.202;6.344;2022-08-07T08:40:13;20.00;99.90
9375;DHT22;4727;51.202;6.344;2022-08-07T08:42:55;20.10;99.90
9375;DHT22;4727;51.202;6.344;2022-08-07T08:45:40;20.20;99.90
9375;DHT22;4727;51.202;6.344;2022-08-07T08:48:31;20.30;99.90
9375;DHT22;4727;51.202;6.344;2022-08-07T08:54:00;20.50;1.00
9375;DHT22;4727;51.202;6.344;2022-08-07T08:56:46;20.60;1.00
9375;DHT22;4727;51.202;6.344;2022-08-07T09:02:14;20.70;1.00
9375;DHT22;4727;51.202;6.344;2022-08-07T09:07:37;20.90;1.00
9375;DHT22;4727;51.202;6.344;2022-08-07T09:10:22;20.90;1.00
9375;DHT22;4727;51.202;6.344;2022-08-07T09:13:22;21.00;1.00
9375;DHT22;4727;51.202;6.344;2022-08-07T09:24:27;21.20;1.00
9375;DHT22;4727;51.202;6.344;2022-08-07T09:30:04;21.40;1.00
9375;DHT22;4727;51.202;6.344;2022-08-07T09:35:37;21.50;1.00
9375;DHT22;4727;51.202;6.344;2022-08-07T09:38:08;21.50;1.00
9375;DHT22;4727;51.202;6.344;2022-08-07T09:40:49;21.60;1.00
9375;DHT22;4727;51.202;6.344;2022-08-07T09:43:33;21.70;1.00
9375;DHT22;4727;51.202;6.344;2022-08-07T09:46:31;21.70;1.00
9375;DHT22;4727;51.202;6.344;2022-08-07T09:54:32;21.80;1.00
9375;DHT22;4727;51.202;6.344;2022-08-07T10:23:23;22.30;1.00
9375;DHT22;4727;51.202;6.344;2022-08-07T10:26:10;22.40;99.90
9375;DHT22;4727;51.202;6.344;2022-08-07T10:29:10;22.50;99.90
9375;DHT22;4727;51.202;6.344;2022-08-07T10:31:52;22.50;99.90
9375;DHT22;4727;51.202;6.344;2022-08-07T10:34:46;22.50;99.90
9375;DHT22;4727;51.202;6.344;2022-08-07T10:46:08;22.80;99.90
9375;DHT22;4727;51.202;6.344;2022-08-07T10:48:41;22.90;1.00
9375;DHT22;4727;51.202;6.344;2022-08-07T10:51:17;23.00;99.90
9375;DHT22;4727;51.202;6.344;2022-08-07T10:53:56;22.90;1.00
9375;DHT22;4727;51.202;6.344;2022-08-07T11:07:44;23.00;44.10
9375;DHT22;4727;51.202;6.344;2022-08-07T11:10:24;23.10;99.90
9375;DHT22;4727;51.202;6.344;2022-08-07T11:13:17;23.20;1.00
9375;DHT22;4727;51.202;6.344;2022-08-07T11:15:47;23.20;1.00
9375;DHT22;4727;51.202;6.344;2022-08-07T11:18:19;23.30;99.90
9375;DHT22;4727;51.202;6.344;2022-08-07T11:20:57;23.30;1.00
9375;DHT22;4727;51.202;6.344;2022-08-07T11:26:42;23.50;1.00
9375;DHT22;4727;51.202;6.344;2022-08-07T11:29:10;23.50;1.00
9375;DHT22;4727;51.202;6.344;2022-08-07T11:31:48;23.50;1.00
9375;DHT22;4727;51.202;6.344;2022-08-07T11:34:32;23.40;25.30
9375;DHT22;4727;51.202;6.344;2022-08-07T11:37:05;23.30;1.00
9375;DHT22;4727;51.202;6.344;2022-08-07T11:40:24;23.30;99.90
9375;DHT22;4727;51.202;6.344;2022-08-07T11:54:30;23.90;1.00
9375;DHT22;4727;51.202;6.344;2022-08-07T12:00:09;24.10;70.20
9375;DHT22;4727;51.202;6.344;2022-08-07T12:07:59;23.90;99.90
9375;DHT22;4727;51.202;6.344;2022-08-07T12:11:08;23.90;96.40
9375;DHT22;4727;51.202;6.344;2022-08-07T12:13:41;23.90;1.00
9375;DHT22;4727;51.202;6.344;2022-08-07T12:16:24;24.00;1.00
9375;DHT22;4727;51.202;6.344;2022-08-07T12:21:27;24.30;1.00
9375;DHT22;4727;51.202;6.344;2022-08-07T12:24:07;24.40;1.00
9375;DHT22;4727;51.202;6.344;2022-08-07T12:26:40;24.40;99.90
9375;DHT22;4727;51.202;6.344;2022-08-07T12:34:44;24.60;1.00
9375;DHT22;4727;51.202;6.344;2022-08-07T12:37:12;24.80;1.00
9375;DHT22;4727;51.202;6.344;2022-08-07T12:39:40;24.80;52.30
9375;DHT22;4727;51.202;6.344;2022-08-07T12:42:07;24.90;1.00
9375;DHT22;4727;51.202;6.344;2022-08-07T12:44:37;25.00;1.00
9375;DHT22;4727;51.202;6.344;2022-08-07T12:49:56;25.30;99.90
9375;DHT22;4727;51.202;6.344;2022-08-07T12:57:34;26.20;1.00
9375;DHT22;4727;51.202;6.344;2022-08-07T13:00:02;26.50;94.70
9375;DHT22;4727;51.202;6.344;2022-08-07T13:05:43;26.80;93.70
9375;DHT22;4727;51.202;6.344;2022-08-07T13:08:42;27.00;99.90
9375;DHT22;4727;51.202;6.344;2022-08-07T13:11:33;26.70;1.00
9375;DHT22;4727;51.202;6.344;2022-08-07T13:17:05;27.40;1.00
9375;DHT22;4727;51.202;6.344;2022-08-07T13:22:47;27.40;1.00
9375;DHT22;4727;51.202;6.344;2022-08-07T13:28:15;27.50;1.00
9375;DHT22;4727;51.202;6.344;2022-08-07T13:30:49;27.50;10.70
9375;DHT22;4727;51.202;6.344;2022-08-07T13:33:32;27.40;1.00
9375;DHT22;4727;51.202;6.344;2022-08-07T13:36:22;27.50;1.00
9375;DHT22;4727;51.202;6.344;2022-08-07T13:41:44;27.70;1.00
9375;DHT22;4727;51.202;6.344;2022-08-07T13:44:17;27.70;99.90
9375;DHT22;4727;51.202;6.344;2022-08-07T13:46:45;28.00;1.00
9375;DHT22;4727;51.202;6.344;2022-08-07T13:49:16;28.30;1.00
9375;DHT22;4727;51.202;6.344;2022-08-07T13:51:45;28.50;99.90
9375;DHT22;4727;51.202;6.344;2022-08-07T13:54:12;28.50;99.90
9375;DHT22;4727;51.202;6.344;2022-08-07T13:56:40;28.50;99.90
9375;DHT22;4727;51.202;6.344;2022-08-07T13:59:27;28.60;99.90
9375;DHT22;4727;51.202;6.344;2022-08-07T14:04:35;28.90;1.00
9375;DHT22;4727;51.202;6.344;2022-08-07T14:07:05;28.90;1.00
9375;DHT22;4727;51.202;6.344;2022-08-07T14:09:31;28.70;99.90
9375;DHT22;4727;51.202;6.344;2022-08-07T14:12:00;28.90;1.00
9375;DHT22;4727;51.202;6.344;2022-08-07T14:14:40;28.90;1.00
9375;DHT22;4727;51.202;6.344;2022-08-07T14:17:09;28.90;1.00
9375;DHT22;4727;51.202;6.344;2022-08-07T14:22:05;28.80;1.00
9375;DHT22;4727;51.202;6.344;2022-08-07T14:24:41;28.80;45.90
9375;DHT22;4727;51.202;6.344;2022-08-07T14:27:11;28.90;99.90
9375;DHT22;4727;51.202;6.344;2022-08-07T14:29:46;28.90;99.90
9375;DHT22;4727;51.202;6.344;2022-08-07T14:32:12;28.70;1.00
9375;DHT22;4727;51.202;6.344;2022-08-07T14:34:42;28.70;99.90
9375;DHT22;4727;51.202;6.344;2022-08-07T14:37:10;28.80;99.90
9375;DHT22;4727;51.202;6.344;2022-08-07T14:39:39;28.80;1.00
9375;DHT22;4727;51.202;6.344;2022-08-07T14:42:09;28.80;1.00
9375;DHT22;4727;51.202;6.344;2022-08-07T14:44:37;28.60;99.90
9375;DHT22;4727;51.202;6.344;2022-08-07T14:47:05;28.80;1.00
9375;DHT22;4727;51.202;6.344;2022-08-07T14:49:33;28.90;13.50
9375;DHT22;4727;51.202;6.344;2022-08-07T14:52:00;28.70;1.00
9375;DHT22;4727;51.202;6.344;2022-08-07T14:54:29;28.70;99.90
9375;DHT22;4727;51.202;6.344;2022-08-07T14:56:56;28.90;1.00
9375;DHT22;4727;51.202;6.344;2022-08-07T14:59:24;28.70;97.40
9375;DHT22;4727;51.202;6.344;2022-08-07T15:01:51;28.60;1.00
9375;DHT22;4727;51.202;6.344;2022-08-07T15:04:19;28.80;99.90
9375;DHT22;4727;51.202;6.344;2022-08-07T15:06:48;28.90;99.90
9375;DHT22;4727;51.202;6.344;2022-08-07T15:09:17;28.90;1.00
9375;DHT22;4727;51.202;6.344;2022-08-07T15:11:58;28.80;20.80
9375;DHT22;4727;51.202;6.344;2022-08-07T15:14:25;28.70;1.00
9375;DHT22;4727;51.202;6.344;2022-08-07T15:17:13;28.70;99.90
9375;DHT22;4727;51.202;6.344;2022-08-07T15:19:51;28.80;1.00
9375;DHT22;4727;51.202;6.344;2022-08-07T15:22:18;28.80;1.00
9375;DHT22;4727;51.202;6.344;2022-08-07T15:24:48;28.90;1.00
9375;DHT22;4727;51.202;6.344;2022-08-07T15:27:19;29.00;1.00
9375;DHT22;4727;51.202;6.344;2022-08-07T15:29:54;29.20;99.90
9375;DHT22;4727;51.202;6.344;2022-08-07T15:32:23;29.20;1.00
9375;DHT22;4727;51.202;6.344;2022-08-07T15:34:51;29.00;99.90
9375;DHT22;4727;51.202;6.344;2022-08-07T15:37:23;28.90;99.90
9375;DHT22;4727;51.202;6.344;2022-08-07T15:39:56;28.50;99.90
9375;DHT22;4727;51.202;6.344;2022-08-07T15:45:09;28.50;99.90
9375;DHT22;4727;51.202;6.344;2022-08-07T15:47:39;28.40;99.90
9375;DHT22;4727;51.202;6.344;2022-08-07T15:50:11;28.50;99.90
9375;DHT22;4727;51.202;6.344;2022-08-07T15:52:42;28.60;99.90
9375;DHT22;4727;51.202;6.344;2022-08-07T15:55:12;28.60;1.00
9375;DHT22;4727;51.202;6.344;2022-08-07T15:57:40;28.80;1.00
9375;DHT22;4727;51.202;6.344;2022-08-07T16:00:09;28.80;99.90
9375;DHT22;4727;51.202;6.344;2022-08-07T16:02:40;28.60;1.00
9375;DHT22;4727;51.202;6.344;2022-08-07T16:05:10;28.40;99.90
9375;DHT22;4727;51.202;6.344;2022-08-07T16:07:42;28.50;99.90
9375;DHT22;4727;51.202;6.344;2022-08-07T16:10:36;28.50;99.90
9375;DHT22;4727;51.202;6.344;2022-08-07T16:19:40;28.20;1.00
9375;DHT22;4727;51.202;6.344;2022-08-07T16:25:10;27.60;99.90
9375;DHT22;4727;51.202;6.344;2022-08-07T16:27:44;27.40;99.90
9375;DHT22;4727;51.202;6.344;2022-08-07T16:30:16;27.30;1.00
9375;DHT22;4727;51.202;6.344;2022-08-07T16:32:46;27.10;99.90
9375;DHT22;4727;51.202;6.344;2022-08-07T16:35:17;26.90;1.00
9375;DHT22;4727;51.202;6.344;2022-08-07T16:41:02;26.30;1.00
9375;DHT22;4727;51.202;6.344;2022-08-07T16:46:54;26.40;1.00
9375;DHT22;4727;51.202;6.344;2022-08-07T16:52:41;26.60;99.90
9375;DHT22;4727;51.202;6.344;2022-08-07T16:57:58;26.30;1.00
9375;DHT22;4727;51.202;6.344;2022-08-07T17:00:38;26.20;1.00
9375;DHT22;4727;51.202;6.344;2022-08-07T17:05:59;26.20;99.90
9375;DHT22;4727;51.202;6.344;2022-08-07T17:11:12;26.30;99.90
9375;DHT22;4727;51.202;6.344;2022-08-07T17:13:56;26.20;99.90
9375;DHT22;4727;51.202;6.344;2022-08-07T17:16:49;26.20;99.90
9375;DHT22;4727;51.202;6.344;2022-08-07T17:19:37;26.20;1.00
9375;DHT22;4727;51.202;6.344;2022-08-07T17:22:18;26.00;99.90
9375;DHT22;4727;51.202;6.344;2022-08-07T17:25:03;25.90;99.90
9375;DHT22;4727;51.202;6.344;2022-08-07T17:30:16;25.50;1.00
9375;DHT22;4727;51.202;6.344;2022-08-07T17:33:11;25.50;99.90
9375;DHT22;4727;51.202;6.344;2022-08-07T17:38:16;25.30;99.90
9375;DHT22;4727;51.202;6.344;2022-08-07T17:44:08;25.20;1.00
9375;DHT22;4727;51.202;6.344;2022-08-07T17:46:40;25.10;99.90
9375;DHT22;4727;51.202;6.344;2022-08-07T17:49:21;25.00;1.00
9375;DHT22;4727;51.202;6.344;2022-08-07T17:54:41;24.90;1.00
9375;DHT22;4727;51.202;6.344;2022-08-07T18:00:00;24.80;1.00
9375;DHT22;4727;51.202;6.344;2022-08-07T18:05:22;24.60;1.00
9375;DHT22;4727;51.202;6.344;2022-08-07T18:08:12;24.50;1.00
9375;DHT22;4727;51.202;6.344;2022-08-07T18:10:59;24.40;1.00
9375;DHT22;4727;51.202;6.344;2022-08-07T18:13:58;24.30;1.00
9375;DHT22;4727;51.202;6.344;2022-08-07T18:16:38;24.20;1.00
9375;DHT22;4727;51.202;6.344;2022-08-07T18:22:43;24.10;1.00
9375;DHT22;4727;51.202;6.344;2022-08-07T18:25:22;24.00;99.90
9375;DHT22;4727;51.202;6.344;2022-08-07T18:28:10;23.90;99.90
9375;DHT22;4727;51.202;6.344;2022-08-07T18:36:25;23.80;1.00
9375;DHT22;4727;51.202;6.344;2022-08-07T18:39:11;23.70;1.00
9375;DHT22;4727;51.202;6.344;2022-08-07T18:42:02;23.70;1.00
9375;DHT22;4727;51.202;6.344;2022-08-07T18:45:01;23.80;1.00
9375;DHT22;4727;51.202;6.344;2022-08-07T18:47:36;23.80;1.00
9375;DHT22;4727;51.202;6.344;2022-08-07T18:56:06;23.60;1.00
9375;DHT22;4727;51.202;6.344;2022-08-07T19:01:43;23.50;99.90
9375;DHT22;4727;51.202;6.344;2022-08-07T19:04:19;23.50;99.90
9375;DHT22;4727;51.202;6.344;2022-08-07T19:06:52;23.40;1.00
9375;DHT22;4727;51.202;6.344;2022-08-07T19:09:32;23.40;1.00
9375;DHT22;4727;51.202;6.344;2022-08-07T19:15:23;23.20;99.90
9375;DHT22;4727;51.202;6.344;2022-08-07T19:20:46;23.20;1.00
9375;DHT22;4727;51.202;6.344;2022-08-07T19:23:23;23.10;1.00
9375;DHT22;4727;51.202;6.344;2022-08-07T19:25:52;23.10;1.00
9375;DHT22;4727;51.202;6.344;2022-08-07T19:28:26;23.00;1.00
9375;DHT22;4727;51.202;6.344;2022-08-07T19:30:57;23.00;1.00
9375;DHT22;4727;51.202;6.344;2022-08-07T19:33:25;23.10;99.90
9375;DHT22;4727;51.202;6.344;2022-08-07T19:35:55;23.00;1.00
9375;DHT22;4727;51.202;6.344;2022-08-07T19:38:26;22.90;1.00
9375;DHT22;4727;51.202;6.344;2022-08-07T19:40:57;22.80;99.90
9375;DHT22;4727;51.202;6.344;2022-08-07T19:43:28;22.80;99.90
9375;DHT22;4727;51.202;6.344;2022-08-07T19:45:57;22.70;99.90
9375;DHT22;4727;51.202;6.344;2022-08-07T19:48:36;22.70;99.90
9375;DHT22;4727;51.202;6.344;2022-08-07T19:51:03;22.60;99.90
9375;DHT22;4727;51.202;6.344;2022-08-07T19:53:29;22.50;99.90
9375;DHT22;4727;51.202;6.344;2022-08-07T19:55:55;22.50;1.00
9375;DHT22;4727;51.202;6.344;2022-08-07T19:58:22;22.40;99.90
9375;DHT22;4727;51.202;6.344;2022-08-07T20:00:50;22.40;99.90
9375;DHT22;4727;51.202;6.344;2022-08-07T20:03:19;22.40;1.00
9375;DHT22;4727;51.202;6.344;2022-08-07T20:05:53;22.30;1.00
9375;DHT22;4727;51.202;6.344;2022-08-07T20:08:29;22.30;99.90